LIRP/PSA METAR and TAF weather

Enter ICAO airport designator
Station Type Date Time Source
LIRP METAR 2021/03/01 04:15 UTC NOAA

LIRP 010415Z 14003KT 100V190 CAVOK 02/M01 Q1028 NOSIG


Station Type Date Time Source
LIRP Decoded METAR 2021/03/01 04:15 UTC NOAA

Pisa / S. Giusto, Italy (LIRP) 43-41N 010-23E 6M
Feb 28, 2021 - 11:15 PM EST / 2021.03.01 0415 UTC
Wind: from the SE (140 degrees) at 3 MPH (3 KT) (direction variable):0
Visibility: greater than 7 mile(s):0
Temperature: 35 F (2 C)
Dew Point: 30 F (-1 C)
Relative Humidity: 80%
Pressure (altimeter): 30.36 in. Hg (1028 hPa)
ob: LIRP 010415Z 14003KT 100V190 CAVOK 02/M01 Q1028 NOSIG
cycle: 4

Station Type Date Time Source
LIRP TAF 2021/02/28 18:21 UTC NOAA

TAF LIRP 281700Z 2818/0118 10012KT CAVOK
BECMG 2819/2821 12006KT

Example: see airport list